createdAt,value
2022-12-31T00:01:36.097Z,2.01
2022-12-31T00:04:09.240Z,1.99
2022-12-31T00:06:56.082Z,1.99
2022-12-31T00:09:36.103Z,1.97
2022-12-31T00:12:30.080Z,1.92
2022-12-31T00:15:17.137Z,1.87
2022-12-31T00:17:50.205Z,1.84
2022-12-31T00:20:37.117Z,1.82
2022-12-31T00:23:11.378Z,1.81
2022-12-31T00:25:58.099Z,1.77
2022-12-31T00:28:31.275Z,1.76
2022-12-31T00:31:22.132Z,1.71
2022-12-31T00:33:56.224Z,1.70
2022-12-31T00:36:45.117Z,1.67
2022-12-31T00:39:18.297Z,1.63
2022-12-31T00:42:05.112Z,1.60
2022-12-31T00:44:45.099Z,1.57
2022-12-31T00:47:33.135Z,1.54
2022-12-31T00:50:13.117Z,1.54
2022-12-31T00:53:00.128Z,1.52
2022-12-31T00:55:36.106Z,1.50
2022-12-31T00:58:23.102Z,1.46
2022-12-31T01:00:56.281Z,1.46
2022-12-31T01:03:43.126Z,1.44
2022-12-31T01:06:18.217Z,1.44
2022-12-31T01:09:05.125Z,1.43
2022-12-31T01:11:45.119Z,1.38
2022-12-31T01:14:32.150Z,1.36
2022-12-31T01:17:05.248Z,1.35
2022-12-31T01:19:55.136Z,1.30
2022-12-31T01:22:28.295Z,1.28
2022-12-31T01:25:15.120Z,1.27
2022-12-31T01:27:55.125Z,1.26
2022-12-31T01:30:53.134Z,1.26
2022-12-31T01:33:41.142Z,1.27
2022-12-31T01:36:27.132Z,1.24
2022-12-31T01:39:22.143Z,1.23
2022-12-31T01:42:09.119Z,1.22
2022-12-31T01:44:45.239Z,1.22
2022-12-31T01:47:44.221Z,1.22
2022-12-31T01:50:34.126Z,1.19
2022-12-31T01:53:30.207Z,1.13
2022-12-31T01:56:18.302Z,1.13
2022-12-31T01:58:56.316Z,1.13
2022-12-31T02:01:45.205Z,1.12
2022-12-31T02:04:27.158Z,1.10
2022-12-31T02:07:16.149Z,1.06
2022-12-31T02:09:56.131Z,1.04
2022-12-31T02:12:43.129Z,0.99
2022-12-31T02:15:24.144Z,0.97
2022-12-31T02:18:35.213Z,0.93
2022-12-31T02:21:33.138Z,0.90
2022-12-31T02:24:27.197Z,0.85
2022-12-31T02:27:13.153Z,0.81
2022-12-31T02:30:06.148Z,0.79
2022-12-31T02:33:04.231Z,0.79
2022-12-31T02:35:56.137Z,0.76
2022-12-31T02:38:33.390Z,0.72
2022-12-31T02:41:42.148Z,0.70
2022-12-31T02:44:38.348Z,0.70
2022-12-31T02:47:43.157Z,0.67
2022-12-31T02:50:34.300Z,0.66
2022-12-31T02:53:31.147Z,0.63
2022-12-31T02:56:20.151Z,0.61
2022-12-31T02:59:40.227Z,0.60
2022-12-31T03:02:30.248Z,0.56
2022-12-31T03:05:11.184Z,0.55
2022-12-31T03:08:05.158Z,0.54
2022-12-31T03:10:52.188Z,0.52
2022-12-31T03:13:25.291Z,0.52
2022-12-31T03:16:12.256Z,0.50
2022-12-31T03:19:24.214Z,0.48
2022-12-31T03:22:36.258Z,0.48
2022-12-31T03:25:41.223Z,0.49
2022-12-31T03:28:24.173Z,0.45
2022-12-31T03:31:00.387Z,0.46
2022-12-31T03:33:48.179Z,0.48
2022-12-31T03:36:29.221Z,0.51
2022-12-31T03:39:23.173Z,0.53
2022-12-31T03:42:10.171Z,0.54
2022-12-31T03:44:43.316Z,0.57
2022-12-31T03:47:30.196Z,0.63
2022-12-31T03:50:03.316Z,0.65
2022-12-31T03:52:50.173Z,0.69
2022-12-31T03:55:30.224Z,0.72
2022-12-31T03:58:17.166Z,0.75
2022-12-31T04:00:50.349Z,0.79
2022-12-31T04:03:37.227Z,0.85
2022-12-31T04:06:18.297Z,0.89
2022-12-31T04:09:12.197Z,0.91
2022-12-31T04:12:14.197Z,0.97
2022-12-31T04:15:01.339Z,1.00
2022-12-31T04:17:41.249Z,1.05
2022-12-31T04:20:28.200Z,1.11
2022-12-31T04:23:01.314Z,1.15
2022-12-31T04:25:48.179Z,1.17
2022-12-31T04:28:28.196Z,1.21
2022-12-31T04:31:15.229Z,1.25
2022-12-31T04:33:51.339Z,1.32
2022-12-31T04:36:38.189Z,1.37
2022-12-31T04:39:11.326Z,1.40
2022-12-31T04:41:58.243Z,1.44
2022-12-31T04:44:31.735Z,1.48
2022-12-31T04:47:23.404Z,1.52
2022-12-31T04:49:57.333Z,1.56
2022-12-31T04:52:44.188Z,1.61
2022-12-31T04:55:17.324Z,1.65
2022-12-31T04:58:04.188Z,1.68
2022-12-31T05:00:37.426Z,1.72
2022-12-31T05:03:25.281Z,1.75
2022-12-31T05:05:59.320Z,1.78
2022-12-31T05:08:46.256Z,1.86
2022-12-31T05:11:20.391Z,1.95
2022-12-31T05:14:07.226Z,2.00
2022-12-31T05:16:40.406Z,2.03
2022-12-31T05:19:28.573Z,2.04
2022-12-31T05:22:19.895Z,2.06
2022-12-31T05:25:07.229Z,2.09
2022-12-31T05:27:51.229Z,2.14
2022-12-31T05:30:45.260Z,2.14
2022-12-31T05:33:39.230Z,2.15
2022-12-31T05:36:26.300Z,2.16
2022-12-31T05:38:59.496Z,2.18
2022-12-31T05:41:46.277Z,2.19
2022-12-31T05:44:26.246Z,2.23
2022-12-31T05:47:22.974Z,2.26
2022-12-31T05:50:16.260Z,2.28
2022-12-31T05:53:03.322Z,2.30
2022-12-31T05:55:36.347Z,2.33
2022-12-31T05:58:23.255Z,2.33
2022-12-31T06:00:58.379Z,2.33
2022-12-31T06:03:45.247Z,2.35
2022-12-31T06:06:18.371Z,2.37
2022-12-31T06:09:05.229Z,2.41
2022-12-31T06:11:38.350Z,2.41
2022-12-31T06:14:25.251Z,2.44
2022-12-31T06:16:58.384Z,2.45
2022-12-31T06:19:45.267Z,2.46
2022-12-31T06:22:18.352Z,2.48
2022-12-31T06:25:05.253Z,2.51
2022-12-31T06:27:38.343Z,2.54
2022-12-31T06:30:27.234Z,2.55
2022-12-31T06:33:08.251Z,2.57
2022-12-31T06:35:55.238Z,2.58
2022-12-31T06:38:35.258Z,2.60
2022-12-31T06:41:25.236Z,2.63
2022-12-31T06:44:05.236Z,2.65
2022-12-31T06:46:59.243Z,2.66
2022-12-31T06:49:47.236Z,2.69
2022-12-31T06:52:20.523Z,2.71
2022-12-31T06:55:07.238Z,2.72
2022-12-31T06:57:48.321Z,2.75
2022-12-31T07:00:35.237Z,2.76
2022-12-31T07:03:43.235Z,2.76
2022-12-31T07:06:44.284Z,2.77
2022-12-31T07:09:44.261Z,2.77
2022-12-31T07:12:58.327Z,2.78
2022-12-31T07:16:23.345Z,2.80
2022-12-31T07:19:57.685Z,2.85
2022-12-31T07:22:51.260Z,2.85
2022-12-31T07:25:39.255Z,2.92
2022-12-31T07:28:23.417Z,2.96
2022-12-31T07:31:31.310Z,3.00
2022-12-31T07:34:35.054Z,3.06
2022-12-31T07:37:35.274Z,3.12
2022-12-31T07:40:39.246Z,3.17
2022-12-31T07:43:31.682Z,3.22
2022-12-31T07:46:29.408Z,3.24
2022-12-31T07:49:10.262Z,3.28
2022-12-31T07:52:04.308Z,3.34
2022-12-31T07:54:56.785Z,3.37
2022-12-31T07:57:46.418Z,3.42
2022-12-31T08:00:42.331Z,3.46
2022-12-31T08:03:47.335Z,3.52
2022-12-31T08:06:34.320Z,3.57
2022-12-31T08:09:53.334Z,3.64
2022-12-31T08:12:51.335Z,3.71
2022-12-31T08:15:38.299Z,3.79
2022-12-31T08:18:13.436Z,3.86
2022-12-31T08:21:14.337Z,3.94
2022-12-31T08:24:21.175Z,4.06
2022-12-31T08:27:36.357Z,4.27
2022-12-31T08:30:34.437Z,4.41
2022-12-31T08:33:46.356Z,4.48
2022-12-31T08:36:45.404Z,4.54
2022-12-31T08:39:54.342Z,4.57
2022-12-31T08:43:03.336Z,4.59
2022-12-31T08:46:07.290Z,4.62
2022-12-31T08:48:55.334Z,4.65
2022-12-31T08:51:31.412Z,4.69
2022-12-31T08:54:19.266Z,4.69
2022-12-31T08:57:01.416Z,4.69
2022-12-31T09:00:08.311Z,4.66
2022-12-31T09:03:07.455Z,4.66
2022-12-31T09:06:09.339Z,4.65
2022-12-31T09:09:09.443Z,4.63
2022-12-31T09:12:15.436Z,4.65
2022-12-31T09:15:11.415Z,4.68
2022-12-31T09:18:05.348Z,4.69
2022-12-31T09:20:52.368Z,4.71
2022-12-31T09:23:25.431Z,4.72
2022-12-31T09:26:45.338Z,4.70
2022-12-31T09:29:33.017Z,4.69
2022-12-31T09:32:42.346Z,4.66
2022-12-31T09:35:43.337Z,4.63
2022-12-31T09:39:30.340Z,4.60
2022-12-31T09:42:51.343Z,4.58
2022-12-31T09:45:31.419Z,4.56
2022-12-31T09:48:42.392Z,4.55
2022-12-31T09:51:39.345Z,4.55
2022-12-31T09:54:45.419Z,4.54
2022-12-31T09:57:49.541Z,4.53
2022-12-31T10:00:57.397Z,4.54
2022-12-31T10:04:00.348Z,4.55
2022-12-31T10:06:59.334Z,4.54
2022-12-31T10:10:06.363Z,4.56
2022-12-31T10:13:21.384Z,4.57
2022-12-31T10:16:17.392Z,4.56
2022-12-31T10:19:25.441Z,4.57
2022-12-31T10:22:55.336Z,4.57
2022-12-31T10:26:07.390Z,4.56
2022-12-31T10:29:01.465Z,4.57
2022-12-31T10:31:57.390Z,4.56
2022-12-31T10:35:18.468Z,4.57
2022-12-31T10:38:26.379Z,4.57
2022-12-31T10:41:15.452Z,4.58
2022-12-31T10:44:21.334Z,4.60
2022-12-31T10:47:53.378Z,4.59
2022-12-31T10:51:01.348Z,4.58
2022-12-31T10:53:59.425Z,4.59
2022-12-31T10:57:13.386Z,4.57
2022-12-31T11:00:12.385Z,4.57
2022-12-31T11:03:16.423Z,4.59
2022-12-31T11:06:39.383Z,4.62
2022-12-31T11:09:36.845Z,4.65
2022-12-31T11:12:49.383Z,4.69
2022-12-31T11:15:51.557Z,4.70
2022-12-31T11:18:46.382Z,4.72
2022-12-31T11:21:49.390Z,4.73
2022-12-31T11:25:00.389Z,4.73
2022-12-31T11:28:00.403Z,4.75
2022-12-31T11:30:54.923Z,4.76
2022-12-31T11:33:50.483Z,4.78
2022-12-31T11:36:51.386Z,4.80
2022-12-31T11:40:06.367Z,4.78
2022-12-31T11:43:05.389Z,4.80
2022-12-31T11:45:50.676Z,4.81
2022-12-31T11:49:07.387Z,4.79
2022-12-31T11:52:07.919Z,4.78
2022-12-31T11:55:16.380Z,4.76
2022-12-31T11:58:02.412Z,4.76
2022-12-31T12:01:13.451Z,4.77
2022-12-31T12:03:47.540Z,4.78
2022-12-31T12:06:36.386Z,4.78
2022-12-31T12:09:21.393Z,4.80
2022-12-31T12:12:11.404Z,4.80
2022-12-31T12:14:56.413Z,4.80
2022-12-31T12:17:51.406Z,4.84
2022-12-31T12:20:42.374Z,4.86
2022-12-31T12:23:32.874Z,4.87
2022-12-31T12:26:40.394Z,4.88
2022-12-31T12:29:41.465Z,4.86
2022-12-31T12:32:31.391Z,4.86
2022-12-31T12:35:11.409Z,4.84
2022-12-31T12:38:14.357Z,4.82
2022-12-31T12:40:47.451Z,4.81
2022-12-31T12:43:42.401Z,4.80
2022-12-31T12:46:48.067Z,4.81
2022-12-31T12:50:02.398Z,4.80
2022-12-31T12:53:02.371Z,4.80
2022-12-31T12:55:44.489Z,4.79
2022-12-31T12:58:47.433Z,4.78
2022-12-31T13:02:04.438Z,4.78
2022-12-31T13:05:28.210Z,4.78
2022-12-31T13:08:30.375Z,4.78
2022-12-31T13:11:32.369Z,4.75
2022-12-31T13:15:17.446Z,4.75
2022-12-31T13:18:26.383Z,4.75
2022-12-31T13:21:49.441Z,4.74
2022-12-31T13:24:37.553Z,4.75
2022-12-31T13:27:34.387Z,4.75
2022-12-31T13:30:18.393Z,4.78
2022-12-31T13:33:14.384Z,4.77
2022-12-31T13:36:18.401Z,4.78
2022-12-31T13:39:15.445Z,4.78
2022-12-31T13:42:09.449Z,4.77
2022-12-31T13:45:08.407Z,4.75
2022-12-31T13:48:07.436Z,4.73
2022-12-31T13:51:26.415Z,4.71
2022-12-31T13:54:19.494Z,4.68
2022-12-31T13:57:12.393Z,4.66
2022-12-31T13:59:59.441Z,4.66
2022-12-31T14:03:47.441Z,4.65
2022-12-31T14:07:01.746Z,4.63
2022-12-31T14:09:49.459Z,4.62
2022-12-31T14:12:39.498Z,4.60
2022-12-31T14:15:43.440Z,4.60
2022-12-31T14:18:26.504Z,4.59
2022-12-31T14:21:21.431Z,4.60
2022-12-31T14:24:09.531Z,4.58
2022-12-31T14:27:01.452Z,4.57
2022-12-31T14:29:54.512Z,4.57
2022-12-31T14:32:51.456Z,4.55
2022-12-31T14:35:49.535Z,4.54
2022-12-31T14:38:50.408Z,4.52
2022-12-31T14:41:52.428Z,4.47
2022-12-31T14:45:15.439Z,4.43
2022-12-31T14:48:31.437Z,4.39
2022-12-31T14:51:07.528Z,4.36
2022-12-31T14:54:00.443Z,4.34
2022-12-31T14:56:42.433Z,4.31
2022-12-31T14:59:44.428Z,4.30
2022-12-31T15:02:40.570Z,4.28
2022-12-31T15:05:30.502Z,4.28
2022-12-31T15:08:49.449Z,4.27
2022-12-31T15:12:07.446Z,4.25
2022-12-31T15:14:58.539Z,4.24
2022-12-31T15:18:04.426Z,4.24
2022-12-31T15:20:51.430Z,4.25
2022-12-31T15:23:30.576Z,4.26
2022-12-31T15:26:30.442Z,4.28
2022-12-31T15:29:25.529Z,4.29
2022-12-31T15:32:23.450Z,4.28
2022-12-31T15:35:18.458Z,4.24
2022-12-31T15:38:10.417Z,4.23
2022-12-31T15:40:50.704Z,4.20
2022-12-31T15:43:58.455Z,4.19
2022-12-31T15:46:37.592Z,4.17
2022-12-31T15:49:31.531Z,4.15
2022-12-31T15:52:21.543Z,4.15
2022-12-31T15:55:12.472Z,4.15
2022-12-31T15:57:47.584Z,4.13
2022-12-31T16:00:48.451Z,4.11
2022-12-31T16:03:38.467Z,4.12
2022-12-31T16:06:25.501Z,4.11
2022-12-31T16:09:05.457Z,4.12
2022-12-31T16:11:59.469Z,4.11
2022-12-31T16:14:52.442Z,4.09
2022-12-31T16:17:42.616Z,4.11
2022-12-31T16:20:32.455Z,4.13
2022-12-31T16:23:08.540Z,4.13
2022-12-31T16:25:57.446Z,4.12
2022-12-31T16:28:36.586Z,4.12
2022-12-31T16:31:28.511Z,4.10
2022-12-31T16:34:20.485Z,4.10
2022-12-31T16:37:20.483Z,4.09
2022-12-31T16:40:02.567Z,4.08
2022-12-31T16:42:49.461Z,4.10
2022-12-31T16:45:38.480Z,4.09
2022-12-31T16:48:27.476Z,4.09
2022-12-31T16:51:09.470Z,4.09
2022-12-31T16:53:58.528Z,4.07
2022-12-31T16:56:44.842Z,4.04
2022-12-31T16:59:48.482Z,4.02
2022-12-31T17:02:26.644Z,4.01
2022-12-31T17:05:26.473Z,4.00
2022-12-31T17:07:59.567Z,4.00
2022-12-31T17:10:53.466Z,4.00
2022-12-31T17:13:36.659Z,4.01
2022-12-31T17:16:24.547Z,4.01
2022-12-31T17:18:57.582Z,3.97
2022-12-31T17:21:44.471Z,3.97
2022-12-31T17:24:19.587Z,3.98
2022-12-31T17:27:15.491Z,4.01
2022-12-31T17:29:55.494Z,3.98
2022-12-31T17:32:43.487Z,3.98
2022-12-31T17:35:42.523Z,3.99
2022-12-31T17:38:32.490Z,3.97
2022-12-31T17:41:25.656Z,3.95
2022-12-31T17:44:12.486Z,3.91
2022-12-31T17:46:46.691Z,3.90
2022-12-31T17:49:37.504Z,3.89
2022-12-31T17:52:10.592Z,3.88
2022-12-31T17:54:57.489Z,3.84
2022-12-31T17:57:36.178Z,3.83
2022-12-31T18:00:27.608Z,3.81
2022-12-31T18:03:00.671Z,3.80
2022-12-31T18:05:47.513Z,3.78
2022-12-31T18:08:27.513Z,3.78
2022-12-31T18:11:21.530Z,3.76
2022-12-31T18:13:55.626Z,3.78
2022-12-31T18:16:42.530Z,3.80
2022-12-31T18:22:40.517Z,3.80
2022-12-31T18:25:30.544Z,3.80
2022-12-31T18:28:10.522Z,3.79
2022-12-31T18:30:57.517Z,3.79
2022-12-31T18:33:39.515Z,3.78
2022-12-31T18:36:35.503Z,3.78
2022-12-31T18:39:32.028Z,3.78
2022-12-31T18:42:30.520Z,3.78
2022-12-31T18:45:29.583Z,3.78
2022-12-31T18:48:23.512Z,3.79
2022-12-31T18:51:10.541Z,3.78
2022-12-31T18:53:43.622Z,3.77
2022-12-31T18:56:31.511Z,3.76
2022-12-31T18:59:04.615Z,3.76
2022-12-31T19:01:51.599Z,3.77
2022-12-31T19:04:28.336Z,3.76
2022-12-31T19:07:15.532Z,3.76
2022-12-31T19:09:53.036Z,3.75
2022-12-31T19:12:43.497Z,3.74
2022-12-31T19:15:27.629Z,3.75
2022-12-31T19:18:21.544Z,3.76
2022-12-31T19:21:09.541Z,3.75
2022-12-31T19:23:49.518Z,3.75
2022-12-31T19:26:43.059Z,3.76
2022-12-31T19:29:39.536Z,3.74
2022-12-31T19:32:33.508Z,3.74
2022-12-31T19:35:22.538Z,3.72
2022-12-31T19:38:00.704Z,3.73
2022-12-31T19:40:47.544Z,3.73
2022-12-31T19:43:23.645Z,3.73
2022-12-31T19:46:10.552Z,3.72
2022-12-31T19:48:43.716Z,3.71
2022-12-31T19:51:31.528Z,3.71
2022-12-31T19:54:05.274Z,3.72
2022-12-31T19:56:51.525Z,3.70
2022-12-31T19:59:31.545Z,3.68
2022-12-31T20:02:19.608Z,3.68
2022-12-31T20:04:59.529Z,3.68
2022-12-31T20:07:46.554Z,3.68
2022-12-31T20:10:26.552Z,3.67
2022-12-31T20:13:13.555Z,3.67
2022-12-31T20:15:47.910Z,3.66
2022-12-31T20:18:41.574Z,3.65
2022-12-31T20:21:31.541Z,3.63
2022-12-31T20:24:11.544Z,3.63
2022-12-31T20:26:58.563Z,3.63
2022-12-31T20:29:31.658Z,3.60
2022-12-31T20:32:18.611Z,3.60
2022-12-31T20:34:51.665Z,3.60
2022-12-31T20:37:38.552Z,3.60
2022-12-31T20:40:12.673Z,3.59
2022-12-31T20:42:59.544Z,3.58
2022-12-31T20:45:32.671Z,3.56
2022-12-31T20:48:19.554Z,3.54
2022-12-31T20:51:10.570Z,3.53
2022-12-31T20:54:10.578Z,3.51
2022-12-31T20:56:57.557Z,3.51
2022-12-31T20:59:30.701Z,3.50
2022-12-31T21:02:39.267Z,3.49
2022-12-31T21:05:14.751Z,3.47
2022-12-31T21:08:01.568Z,3.48
2022-12-31T21:10:35.777Z,3.46
2022-12-31T21:13:25.571Z,3.45
2022-12-31T21:16:00.716Z,3.48
2022-12-31T21:18:54.587Z,3.46
2022-12-31T21:21:48.576Z,3.45
2022-12-31T21:24:35.587Z,3.47
2022-12-31T21:27:08.693Z,3.48
2022-12-31T21:30:17.501Z,3.48
2022-12-31T21:32:55.622Z,3.49
2022-12-31T21:35:53.743Z,3.47
2022-12-31T21:38:43.607Z,3.47
2022-12-31T21:41:36.410Z,3.51
2022-12-31T21:44:27.589Z,3.51
2022-12-31T21:47:38.229Z,3.51
2022-12-31T21:50:25.618Z,3.50
2022-12-31T21:52:58.688Z,3.51
2022-12-31T21:56:04.596Z,3.51
2022-12-31T21:58:45.616Z,3.52
2022-12-31T22:01:50.623Z,3.52
2022-12-31T22:05:00.213Z,3.49
2022-12-31T22:07:30.625Z,3.50
2022-12-31T22:10:10.601Z,3.51
2022-12-31T22:13:04.622Z,3.52
2022-12-31T22:15:52.626Z,3.51
2022-12-31T22:18:26.702Z,3.50
2022-12-31T22:21:18.934Z,3.49
2022-12-31T22:24:05.599Z,3.50
2022-12-31T22:27:28.653Z,3.47
2022-12-31T22:30:15.622Z,3.45
2022-12-31T22:33:09.595Z,3.43
2022-12-31T22:36:12.617Z,3.44
2022-12-31T22:39:09.587Z,3.42
2022-12-31T22:41:56.612Z,3.42
2022-12-31T22:44:29.794Z,3.43
2022-12-31T22:47:16.604Z,3.41
2022-12-31T22:49:49.755Z,3.42
2022-12-31T22:52:37.614Z,3.40
2022-12-31T22:55:18.627Z,3.41
2022-12-31T22:58:12.607Z,3.40
2022-12-31T23:01:06.655Z,3.37
2022-12-31T23:03:54.627Z,3.36
2022-12-31T23:06:29.773Z,3.36
2022-12-31T23:09:36.628Z,3.36
2022-12-31T23:12:12.711Z,3.35
2022-12-31T23:15:18.623Z,3.36
2022-12-31T23:18:16.616Z,3.34
2022-12-31T23:21:28.653Z,3.34
2022-12-31T23:24:26.397Z,3.34
2022-12-31T23:27:13.639Z,3.32
2022-12-31T23:29:47.797Z,3.30
2022-12-31T23:32:34.614Z,3.30
2022-12-31T23:35:09.937Z,3.31
2022-12-31T23:37:56.628Z,3.29
2022-12-31T23:40:40.632Z,3.31
2022-12-31T23:43:28.626Z,3.31
2022-12-31T23:46:09.625Z,3.30
2022-12-31T23:49:03.611Z,3.30
2022-12-31T23:51:50.632Z,3.30
2022-12-31T23:54:23.752Z,3.29
2022-12-31T23:57:10.673Z,3.29
2022-12-31T23:59:43.750Z,3.29
